createdAt,value
2022-08-21T00:01:04.721Z,15.30
2022-08-21T00:03:35.593Z,15.30
2022-08-21T00:06:05.279Z,15.40
2022-08-21T00:08:33.340Z,15.30
2022-08-21T00:11:01.432Z,15.30
2022-08-21T00:13:29.712Z,15.40
2022-08-21T00:15:57.790Z,15.40
2022-08-21T00:18:26.397Z,15.40
2022-08-21T00:20:55.066Z,15.40
2022-08-21T00:23:24.773Z,15.40
2022-08-21T00:25:52.827Z,15.50
2022-08-21T00:28:21.089Z,15.40
2022-08-21T00:30:49.140Z,15.40
2022-08-21T00:33:17.192Z,15.40
2022-08-21T00:35:45.375Z,15.40
2022-08-21T00:38:14.040Z,15.40
2022-08-21T00:40:46.386Z,15.50
2022-08-21T00:43:16.970Z,15.50
2022-08-21T00:45:45.957Z,15.40
2022-08-21T00:48:14.120Z,15.50
2022-08-21T00:50:46.301Z,15.40
2022-08-21T00:53:14.897Z,15.40
2022-08-21T00:55:44.767Z,15.40
2022-08-21T00:58:16.528Z,15.40
2022-08-21T01:00:49.516Z,15.40
2022-08-21T01:03:20.154Z,15.40
2022-08-21T01:05:53.392Z,15.40
2022-08-21T01:08:22.646Z,15.40
2022-08-21T01:10:54.791Z,15.40
2022-08-21T01:13:25.480Z,15.40
2022-08-21T01:15:57.328Z,15.40
2022-08-21T01:18:26.323Z,15.40
2022-08-21T01:21:08.205Z,15.40
2022-08-21T01:23:37.081Z,15.40
2022-08-21T01:26:05.991Z,15.50
2022-08-21T01:28:38.787Z,15.40
2022-08-21T01:31:09.317Z,15.50
2022-08-21T01:33:38.248Z,15.50
2022-08-21T01:36:08.308Z,15.50
2022-08-21T01:38:36.741Z,15.50
2022-08-21T01:41:04.885Z,15.50
2022-08-21T01:43:39.370Z,15.60
2022-08-21T01:46:08.234Z,15.60
2022-08-21T01:48:36.579Z,15.60
2022-08-21T01:51:05.500Z,15.50
2022-08-21T01:53:36.726Z,15.60
2022-08-21T01:56:12.191Z,15.60
2022-08-21T01:58:41.991Z,15.60
2022-08-21T02:01:11.169Z,15.60
2022-08-21T02:03:40.154Z,15.60
2022-08-21T02:06:14.036Z,15.60
2022-08-21T02:08:43.455Z,15.60
2022-08-21T02:11:11.568Z,15.60
2022-08-21T02:13:39.642Z,15.60
2022-08-21T02:16:08.757Z,15.60
2022-08-21T02:18:37.132Z,15.50
2022-08-21T02:21:06.500Z,15.60
2022-08-21T02:23:35.249Z,15.50
2022-08-21T02:26:07.615Z,15.60
2022-08-21T02:28:36.789Z,15.60
2022-08-21T02:31:05.040Z,15.60
2022-08-21T02:33:34.564Z,15.60
2022-08-21T02:36:03.084Z,15.60
2022-08-21T02:38:34.160Z,15.60
2022-08-21T02:41:03.839Z,15.60
2022-08-21T02:43:31.965Z,15.60
2022-08-21T02:46:00.297Z,15.60
2022-08-21T02:48:30.790Z,15.60
2022-08-21T02:51:00.351Z,15.60
2022-08-21T02:53:29.124Z,15.60
2022-08-21T02:56:00.082Z,15.60
2022-08-21T02:58:32.188Z,15.60
2022-08-21T03:01:00.499Z,15.50
2022-08-21T03:03:30.011Z,15.60
2022-08-21T03:05:58.381Z,15.50
2022-08-21T03:08:27.464Z,15.60
2022-08-21T03:10:56.188Z,15.50
2022-08-21T03:13:25.096Z,15.50
2022-08-21T03:15:54.696Z,15.50
2022-08-21T03:18:22.975Z,15.50
2022-08-21T03:20:51.281Z,15.50
2022-08-21T03:23:19.903Z,15.50
2022-08-21T03:25:49.321Z,15.50
2022-08-21T03:28:19.068Z,15.50
2022-08-21T03:30:50.199Z,15.50
2022-08-21T03:33:23.250Z,15.50
2022-08-21T03:36:01.408Z,15.50
2022-08-21T03:38:31.734Z,15.50
2022-08-21T03:41:00.991Z,15.50
2022-08-21T03:43:31.093Z,15.50
2022-08-21T03:46:00.572Z,15.50
2022-08-21T03:48:30.086Z,15.50
2022-08-21T03:50:57.955Z,15.50
2022-08-21T03:53:26.559Z,15.50
2022-08-21T03:55:55.345Z,15.50
2022-08-21T03:58:27.889Z,15.50
2022-08-21T04:00:58.274Z,15.50
2022-08-21T04:03:28.186Z,15.50
2022-08-21T04:05:57.991Z,15.50
2022-08-21T04:08:26.929Z,15.50
2022-08-21T04:10:57.337Z,15.50
2022-08-21T04:13:25.662Z,15.50
2022-08-21T04:15:53.815Z,15.50
2022-08-21T04:18:21.863Z,15.50
2022-08-21T04:20:52.305Z,15.50
2022-08-21T04:23:23.679Z,15.60
2022-08-21T04:25:53.507Z,15.60
2022-08-21T04:28:23.357Z,15.60
2022-08-21T04:30:52.819Z,15.60
2022-08-21T04:33:21.196Z,15.60
2022-08-21T04:35:49.921Z,15.60
2022-08-21T04:38:17.972Z,15.70
2022-08-21T04:40:48.071Z,15.70
2022-08-21T04:43:16.120Z,15.70
2022-08-21T04:45:45.977Z,15.70
2022-08-21T04:48:15.635Z,15.70
2022-08-21T04:50:48.476Z,15.80
2022-08-21T04:53:22.688Z,15.70
2022-08-21T04:55:53.517Z,15.80
2022-08-21T04:58:24.418Z,15.80
2022-08-21T05:00:55.789Z,15.90
2022-08-21T05:03:24.748Z,15.90
2022-08-21T05:05:52.958Z,15.90
2022-08-21T05:08:24.124Z,16.00
2022-08-21T05:10:58.228Z,16.00
2022-08-21T05:13:28.475Z,16.00
2022-08-21T05:15:56.700Z,16.10
2022-08-21T05:18:24.769Z,16.10
2022-08-21T05:20:52.816Z,16.10
2022-08-21T05:23:20.849Z,16.20
2022-08-21T05:25:49.259Z,16.20
2022-08-21T05:28:18.930Z,16.30
2022-08-21T05:30:47.764Z,16.30
2022-08-21T05:33:15.892Z,16.30
2022-08-21T05:35:43.959Z,16.40
2022-08-21T05:38:14.896Z,16.40
2022-08-21T05:40:46.142Z,16.50
2022-08-21T05:43:14.244Z,16.50
2022-08-21T05:45:44.550Z,16.50
2022-08-21T05:48:15.527Z,16.60
2022-08-21T05:50:43.828Z,16.70
2022-08-21T05:53:12.533Z,16.70
2022-08-21T05:55:45.859Z,16.70
2022-08-21T05:58:15.643Z,16.70
2022-08-21T06:00:48.462Z,16.70
2022-08-21T06:03:18.934Z,16.80
2022-08-21T06:05:47.480Z,16.80
2022-08-21T06:08:17.189Z,16.80
2022-08-21T06:10:45.718Z,16.80
2022-08-21T06:13:14.832Z,16.90
2022-08-21T06:15:44.863Z,16.90
2022-08-21T06:18:13.290Z,16.90
2022-08-21T06:20:43.525Z,17.00
2022-08-21T06:23:11.810Z,17.00
2022-08-21T06:25:39.902Z,17.00
2022-08-21T06:28:11.175Z,17.00
2022-08-21T06:30:41.149Z,17.00
2022-08-21T06:33:10.701Z,17.00
2022-08-21T06:35:40.454Z,17.00
2022-08-21T06:38:10.357Z,17.10
2022-08-21T06:40:39.057Z,17.10
2022-08-21T06:43:18.049Z,17.10
2022-08-21T06:45:46.566Z,17.10
2022-08-21T06:48:19.331Z,17.10
2022-08-21T06:50:48.209Z,17.20
2022-08-21T06:53:19.000Z,17.20
2022-08-21T06:55:48.133Z,17.20
2022-08-21T06:58:16.768Z,17.30
2022-08-21T07:00:47.291Z,17.30
2022-08-21T07:03:25.913Z,17.30
2022-08-21T07:05:54.180Z,17.30
2022-08-21T07:08:23.055Z,17.30
2022-08-21T07:10:51.616Z,17.40
2022-08-21T07:13:19.728Z,17.50
2022-08-21T07:15:47.816Z,17.50
2022-08-21T07:18:16.355Z,17.60
2022-08-21T07:20:45.921Z,17.70
2022-08-21T07:23:14.937Z,17.70
2022-08-21T07:25:43.499Z,17.80
2022-08-21T07:28:11.582Z,17.90
2022-08-21T07:30:39.691Z,17.90
2022-08-21T07:33:08.215Z,17.90
2022-08-21T07:35:36.393Z,18.00
2022-08-21T07:38:05.854Z,18.00
2022-08-21T07:40:33.948Z,18.00
2022-08-21T07:43:02.026Z,18.10
2022-08-21T07:45:30.103Z,18.10
2022-08-21T07:47:58.240Z,18.00
2022-08-21T07:50:27.192Z,18.00
2022-08-21T07:52:55.359Z,18.00
2022-08-21T07:55:25.593Z,18.00
2022-08-21T07:57:53.718Z,18.00
2022-08-21T08:00:25.300Z,18.10
2022-08-21T08:02:55.131Z,18.10
2022-08-21T08:05:26.559Z,18.10
2022-08-21T08:07:55.023Z,18.00
2022-08-21T08:10:25.314Z,18.00
2022-08-21T08:12:55.561Z,18.00
2022-08-21T08:15:26.525Z,18.00
2022-08-21T08:17:55.805Z,18.10
2022-08-21T08:20:26.041Z,18.10
2022-08-21T08:22:55.026Z,18.20
2022-08-21T08:25:26.133Z,18.30
2022-08-21T08:27:54.247Z,18.30
2022-08-21T08:30:24.681Z,18.40
2022-08-21T08:32:53.295Z,18.40
2022-08-21T08:35:24.249Z,18.40
2022-08-21T08:37:53.581Z,18.40
2022-08-21T08:40:31.699Z,18.40
2022-08-21T08:43:00.241Z,18.40
2022-08-21T08:45:29.063Z,18.40
2022-08-21T08:48:03.966Z,18.40
2022-08-21T08:50:42.480Z,18.40
2022-08-21T08:53:16.209Z,18.40
2022-08-21T08:55:47.416Z,18.30
2022-08-21T08:58:22.844Z,18.20
2022-08-21T09:00:53.735Z,18.20
2022-08-21T09:03:23.294Z,18.20
2022-08-21T09:05:57.844Z,18.20
2022-08-21T09:08:50.534Z,18.20
2022-08-21T09:11:28.174Z,18.20
2022-08-21T09:14:03.345Z,18.20
2022-08-21T09:16:41.743Z,18.20
2022-08-21T09:19:24.960Z,18.20
2022-08-21T09:21:59.463Z,18.20
2022-08-21T09:24:36.528Z,18.20
2022-08-21T09:27:10.509Z,18.20
2022-08-21T09:29:40.841Z,18.30
2022-08-21T09:32:18.625Z,18.40
2022-08-21T09:35:01.290Z,18.40
2022-08-21T09:37:31.345Z,18.30
2022-08-21T09:40:00.994Z,18.30
2022-08-21T09:42:33.801Z,18.20
2022-08-21T09:45:14.767Z,18.30
2022-08-21T09:47:44.096Z,18.40
2022-08-21T09:50:16.347Z,18.60
2022-08-21T09:52:52.360Z,18.80
2022-08-21T09:55:51.737Z,18.90
2022-08-21T09:58:22.016Z,18.90
2022-08-21T10:01:00.344Z,18.80
2022-08-21T10:03:28.691Z,18.60
2022-08-21T10:05:59.894Z,18.60
2022-08-21T10:08:29.672Z,18.60
2022-08-21T10:11:03.439Z,18.80
2022-08-21T10:13:49.388Z,18.90
2022-08-21T10:16:31.618Z,19.10
2022-08-21T10:19:14.528Z,19.30
2022-08-21T10:21:50.446Z,19.40
2022-08-21T10:24:31.497Z,19.60
2022-08-21T10:27:11.915Z,19.70
2022-08-21T10:29:52.043Z,19.80
2022-08-21T10:33:11.121Z,19.70
2022-08-21T10:35:44.410Z,19.70
2022-08-21T10:39:02.553Z,19.70
2022-08-21T10:41:49.265Z,19.70
2022-08-21T10:44:29.177Z,19.70
2022-08-21T10:47:06.536Z,19.80
2022-08-21T10:49:53.311Z,19.90
2022-08-21T10:52:44.056Z,20.00
2022-08-21T10:55:16.194Z,20.10
2022-08-21T10:57:49.950Z,20.40
2022-08-21T11:00:21.306Z,20.60
2022-08-21T11:02:57.242Z,20.90
2022-08-21T11:05:30.029Z,21.10
2022-08-21T11:08:04.084Z,21.20
2022-08-21T11:10:40.803Z,21.30
2022-08-21T11:13:32.549Z,21.50
2022-08-21T11:16:07.488Z,21.80
2022-08-21T11:18:40.961Z,22.00
2022-08-21T11:21:25.672Z,22.30
2022-08-21T11:24:04.500Z,22.60
2022-08-21T11:26:40.992Z,22.80
2022-08-21T11:29:15.669Z,22.80
2022-08-21T11:31:57.711Z,22.80
2022-08-21T11:34:47.276Z,22.80
2022-08-21T11:37:24.835Z,22.80
2022-08-21T11:40:02.207Z,22.80
2022-08-21T11:42:38.212Z,22.80
2022-08-21T11:45:28.253Z,22.80
2022-08-21T11:48:04.855Z,22.80
2022-08-21T11:50:36.318Z,22.90
2022-08-21T11:53:10.964Z,23.00
2022-08-21T11:55:43.470Z,23.10
2022-08-21T11:58:17.539Z,23.20
2022-08-21T12:00:50.743Z,23.50
2022-08-21T12:03:27.385Z,24.00
2022-08-21T12:06:00.315Z,24.40
2022-08-21T12:08:32.422Z,24.70
2022-08-21T12:11:07.862Z,24.50
2022-08-21T12:13:42.694Z,24.30
2022-08-21T12:16:13.469Z,24.10
2022-08-21T12:18:42.753Z,24.00
2022-08-21T12:21:24.328Z,23.90
2022-08-21T12:24:04.241Z,23.80
2022-08-21T12:26:34.707Z,23.80
2022-08-21T12:29:14.380Z,23.80
2022-08-21T12:31:55.519Z,23.80
2022-08-21T12:34:28.271Z,23.70
2022-08-21T12:37:01.394Z,23.50
2022-08-21T12:39:33.154Z,23.40
2022-08-21T12:42:06.770Z,23.40
2022-08-21T12:44:42.229Z,23.40
2022-08-21T12:47:17.859Z,23.40
2022-08-21T12:49:56.784Z,23.40
2022-08-21T12:52:32.073Z,23.40
2022-08-21T12:55:01.675Z,23.40
2022-08-21T12:57:32.057Z,23.40
2022-08-21T13:00:03.927Z,23.50
2022-08-21T13:02:36.070Z,23.50
2022-08-21T13:05:08.116Z,23.50
2022-08-21T13:07:39.457Z,23.50
2022-08-21T13:10:16.472Z,23.50
2022-08-21T13:12:46.041Z,23.50
2022-08-21T13:15:16.831Z,23.60
2022-08-21T13:17:49.112Z,23.60
2022-08-21T13:20:24.284Z,23.60
2022-08-21T13:22:53.884Z,23.60
2022-08-21T13:25:31.232Z,23.60
2022-08-21T13:28:02.615Z,23.60
2022-08-21T13:30:31.442Z,23.60
2022-08-21T13:33:02.211Z,23.40
2022-08-21T13:35:36.897Z,23.30
2022-08-21T13:38:07.490Z,23.20
2022-08-21T13:40:44.407Z,23.10
2022-08-21T13:43:15.377Z,23.00
2022-08-21T13:45:51.873Z,22.90
2022-08-21T13:48:22.415Z,22.90
2022-08-21T13:50:50.885Z,22.80
2022-08-21T13:53:25.822Z,22.70
2022-08-21T13:55:57.391Z,22.70
2022-08-21T13:58:31.709Z,22.60
2022-08-21T14:01:05.019Z,22.50
2022-08-21T14:03:38.843Z,22.50
2022-08-21T14:06:14.398Z,22.60
2022-08-21T14:08:49.683Z,22.70
2022-08-21T14:11:18.437Z,22.70
2022-08-21T14:13:50.484Z,22.70
2022-08-21T14:16:21.439Z,22.80
2022-08-21T14:18:53.366Z,22.80
2022-08-21T14:21:34.871Z,22.80
2022-08-21T14:24:11.327Z,22.90
2022-08-21T14:26:46.966Z,23.00
2022-08-21T14:29:17.852Z,23.10
2022-08-21T14:31:51.955Z,23.30
2022-08-21T14:34:20.377Z,23.40
2022-08-21T14:36:49.985Z,23.50
2022-08-21T14:39:19.623Z,23.60
2022-08-21T14:41:49.431Z,23.80
2022-08-21T14:44:18.860Z,23.90
2022-08-21T14:46:56.411Z,24.00
2022-08-21T14:49:27.206Z,23.90
2022-08-21T14:51:58.073Z,23.80
2022-08-21T14:54:31.499Z,23.50
2022-08-21T14:57:02.826Z,23.30
2022-08-21T14:59:32.822Z,23.10
2022-08-21T15:02:01.059Z,23.00
2022-08-21T15:04:31.845Z,22.90
2022-08-21T15:06:59.878Z,23.00
2022-08-21T15:09:29.607Z,23.00
2022-08-21T15:12:00.574Z,22.90
2022-08-21T15:14:34.386Z,22.90
2022-08-21T15:17:04.322Z,22.80
2022-08-21T15:19:32.449Z,22.70
2022-08-21T15:22:00.611Z,22.70
2022-08-21T15:24:30.965Z,22.60
2022-08-21T15:27:02.181Z,22.60
2022-08-21T15:29:33.302Z,22.50
2022-08-21T15:32:03.361Z,22.50
2022-08-21T15:34:32.914Z,22.40
2022-08-21T15:37:00.988Z,22.40
2022-08-21T15:39:31.534Z,22.30
2022-08-21T15:42:10.904Z,22.20
2022-08-21T15:44:40.532Z,22.00
2022-08-21T15:47:09.416Z,21.90
2022-08-21T15:49:37.400Z,21.70
2022-08-21T15:52:05.505Z,21.50
2022-08-21T15:54:34.930Z,21.40
2022-08-21T15:57:03.301Z,21.30
2022-08-21T15:59:33.732Z,21.20
2022-08-21T16:02:01.870Z,21.10
2022-08-21T16:04:30.164Z,21.10
2022-08-21T16:07:05.453Z,21.00
2022-08-21T16:09:38.799Z,21.00
2022-08-21T16:12:07.672Z,21.00
2022-08-21T16:14:38.067Z,21.00
2022-08-21T16:17:06.976Z,20.90
2022-08-21T16:19:35.575Z,20.80
2022-08-21T16:22:03.757Z,20.90
2022-08-21T16:24:32.393Z,20.80
2022-08-21T16:27:03.905Z,20.70
2022-08-21T16:29:38.428Z,20.70
2022-08-21T16:32:09.175Z,20.60
2022-08-21T16:34:38.045Z,20.60
2022-08-21T16:37:06.209Z,20.50
2022-08-21T16:39:34.426Z,20.50
2022-08-21T16:42:04.157Z,20.40
2022-08-21T16:44:34.457Z,20.40
2022-08-21T16:47:03.142Z,20.30
2022-08-21T16:49:32.217Z,20.40
2022-08-21T16:52:00.294Z,20.30
2022-08-21T16:54:30.795Z,20.20
2022-08-21T16:56:59.341Z,20.20
2022-08-21T16:59:28.831Z,20.10
2022-08-21T17:01:57.485Z,20.10
2022-08-21T17:04:27.903Z,20.00
2022-08-21T17:06:56.021Z,20.00
2022-08-21T17:09:24.381Z,20.00
2022-08-21T17:11:52.577Z,20.00
2022-08-21T17:14:23.020Z,19.90
2022-08-21T17:16:55.098Z,19.90
2022-08-21T17:19:23.891Z,19.80
2022-08-21T17:21:52.110Z,19.80
2022-08-21T17:24:20.734Z,19.80
2022-08-21T17:26:50.030Z,19.70
2022-08-21T17:29:21.426Z,19.70
2022-08-21T17:31:49.515Z,19.70
2022-08-21T17:34:18.998Z,19.70
2022-08-21T17:36:48.419Z,19.60
2022-08-21T17:39:22.077Z,19.60
2022-08-21T17:41:57.884Z,19.60
2022-08-21T17:44:26.789Z,19.50
2022-08-21T17:46:55.140Z,19.50
2022-08-21T17:49:25.348Z,19.40
2022-08-21T17:51:53.482Z,19.30
2022-08-21T17:54:21.504Z,19.30
2022-08-21T17:56:49.672Z,19.10
2022-08-21T17:59:17.783Z,19.10
2022-08-21T18:01:48.096Z,19.00
2022-08-21T18:04:17.158Z,19.00
2022-08-21T18:06:47.077Z,18.90
2022-08-21T18:09:16.242Z,18.90
2022-08-21T18:11:45.269Z,18.80
2022-08-21T18:14:15.209Z,18.70
2022-08-21T18:16:43.815Z,18.60
2022-08-21T18:19:15.989Z,18.50
2022-08-21T18:21:45.916Z,18.40
2022-08-21T18:24:14.160Z,18.40
2022-08-21T18:26:43.299Z,18.30
2022-08-21T18:29:15.113Z,18.30
2022-08-21T18:31:46.042Z,18.20
2022-08-21T18:34:22.454Z,18.20
2022-08-21T18:36:55.641Z,18.10
2022-08-21T18:39:40.331Z,18.00
2022-08-21T18:42:11.429Z,18.00
2022-08-21T18:44:41.261Z,17.90
2022-08-21T18:47:14.358Z,17.80
2022-08-21T18:49:42.823Z,17.80
2022-08-21T18:52:20.254Z,17.70
2022-08-21T18:54:49.785Z,17.60
2022-08-21T18:57:20.998Z,17.50
2022-08-21T18:59:49.170Z,17.50
2022-08-21T19:02:18.031Z,17.40
2022-08-21T19:04:46.953Z,17.30
2022-08-21T19:07:19.887Z,17.30
2022-08-21T19:10:07.648Z,17.30
2022-08-21T19:12:37.271Z,17.20
2022-08-21T19:15:09.284Z,17.10
2022-08-21T19:17:37.809Z,17.10
2022-08-21T19:20:25.190Z,17.10
2022-08-21T19:22:56.632Z,17.10
2022-08-21T19:25:33.397Z,17.10
2022-08-21T19:28:04.003Z,17.00
2022-08-21T19:30:41.326Z,16.90
2022-08-21T19:33:13.112Z,16.90
2022-08-21T19:35:52.670Z,16.90
2022-08-21T19:38:22.708Z,16.80
2022-08-21T19:40:51.600Z,16.70
2022-08-21T19:43:22.460Z,16.70
2022-08-21T19:45:53.757Z,16.60
2022-08-21T19:48:22.120Z,16.60
2022-08-21T19:50:50.937Z,16.50
2022-08-21T19:53:19.266Z,16.50
2022-08-21T19:55:49.174Z,16.50
2022-08-21T19:58:27.114Z,16.40
2022-08-21T20:00:55.417Z,16.40
2022-08-21T20:03:23.490Z,16.40
2022-08-21T20:05:51.542Z,16.40
2022-08-21T20:08:22.202Z,16.40
2022-08-21T20:11:00.747Z,16.40
2022-08-21T20:13:33.934Z,16.30
2022-08-21T20:16:05.650Z,16.30
2022-08-21T20:18:35.293Z,16.30
2022-08-21T20:21:03.378Z,16.30
2022-08-21T20:23:32.931Z,16.30
2022-08-21T20:26:03.661Z,16.20
2022-08-21T20:28:36.454Z,16.20
2022-08-21T20:33:56.054Z,16.20
2022-08-21T20:36:24.139Z,16.10
2022-08-21T20:38:52.561Z,16.10
2022-08-21T20:41:31.010Z,16.00
2022-08-21T20:44:00.387Z,16.00
2022-08-21T20:46:30.674Z,16.00
2022-08-21T20:49:00.243Z,15.90
2022-08-21T20:51:41.199Z,15.90
2022-08-21T20:54:18.365Z,15.90
2022-08-21T20:56:52.979Z,15.80
2022-08-21T20:59:39.086Z,15.80
2022-08-21T21:02:18.224Z,15.80
2022-08-21T21:04:51.611Z,15.80
2022-08-21T21:07:24.928Z,15.80
2022-08-21T21:09:55.219Z,15.70
2022-08-21T21:12:32.679Z,15.80
2022-08-21T21:15:08.153Z,15.80
2022-08-21T21:17:57.620Z,15.80
2022-08-21T21:20:34.378Z,15.80
2022-08-21T21:23:13.213Z,15.80
2022-08-21T21:25:46.639Z,15.80
2022-08-21T21:28:30.183Z,15.70
2022-08-21T21:30:58.281Z,15.70
2022-08-21T21:36:25.160Z,15.80
2022-08-21T21:39:08.437Z,15.70
2022-08-21T21:41:44.593Z,15.70
2022-08-21T21:44:39.100Z,15.70
2022-08-21T21:47:14.433Z,15.70
2022-08-21T21:49:59.191Z,15.70
2022-08-21T21:52:46.148Z,15.70
2022-08-21T21:55:29.474Z,15.70
2022-08-21T21:58:16.776Z,15.70
2022-08-21T22:00:54.355Z,15.70
2022-08-21T22:03:27.589Z,15.70
2022-08-21T22:06:00.355Z,15.70
2022-08-21T22:08:40.389Z,15.60
2022-08-21T22:11:24.427Z,15.60
2022-08-21T22:14:04.869Z,15.60
2022-08-21T22:16:36.292Z,15.60
2022-08-21T22:19:13.619Z,15.60
2022-08-21T22:21:48.001Z,15.60
2022-08-21T22:24:23.107Z,15.60
2022-08-21T22:26:56.599Z,15.60
2022-08-21T22:29:44.030Z,15.60
2022-08-21T22:32:21.973Z,15.60
2022-08-21T22:35:03.314Z,15.60
2022-08-21T22:37:37.128Z,15.50
2022-08-21T22:40:06.821Z,15.60
2022-08-21T22:42:34.975Z,15.60
2022-08-21T22:45:12.234Z,15.50
2022-08-21T22:47:44.738Z,15.60
2022-08-21T22:50:21.497Z,15.50
2022-08-21T22:52:53.928Z,15.50
2022-08-21T22:55:25.797Z,15.50
2022-08-21T22:58:08.516Z,15.50
2022-08-21T23:00:44.125Z,15.50
2022-08-21T23:03:22.159Z,15.50
2022-08-21T23:05:51.850Z,15.50
2022-08-21T23:08:26.633Z,15.50
2022-08-21T23:11:00.095Z,15.50
2022-08-21T23:13:31.373Z,15.50
2022-08-21T23:16:09.388Z,15.50
2022-08-21T23:18:52.692Z,15.50
2022-08-21T23:21:28.475Z,15.50
2022-08-21T23:27:07.774Z,15.50
2022-08-21T23:29:45.646Z,15.50
2022-08-21T23:32:28.365Z,15.40
2022-08-21T23:35:15.506Z,15.50
2022-08-21T23:37:52.808Z,15.50
2022-08-21T23:40:36.368Z,15.50
2022-08-21T23:43:19.240Z,15.40
2022-08-21T23:46:01.991Z,15.40
2022-08-21T23:48:44.445Z,15.40
2022-08-21T23:51:17.347Z,15.40
2022-08-21T23:53:54.930Z,15.40
2022-08-21T23:56:33.103Z,15.40
2022-08-21T23:59:09.896Z,15.40
